createdAt,value
2022-10-31T00:01:12.634Z,2.40
2022-10-31T00:03:40.713Z,1.38
2022-10-31T00:06:09.146Z,2.47
2022-10-31T00:08:37.512Z,1.58
2022-10-31T00:11:05.930Z,2.08
2022-10-31T00:13:35.479Z,1.95
2022-10-31T00:16:03.553Z,1.25
2022-10-31T00:18:31.738Z,1.55
2022-10-31T00:21:03.207Z,1.40
2022-10-31T00:23:31.339Z,2.20
2022-10-31T00:26:03.081Z,1.85
2022-10-31T00:28:32.994Z,2.10
2022-10-31T00:31:04.322Z,1.75
2022-10-31T00:33:32.943Z,2.25
2022-10-31T00:36:00.986Z,2.45
2022-10-31T00:38:29.148Z,1.60
2022-10-31T00:40:57.443Z,2.83
2022-10-31T00:43:25.778Z,2.22
2022-10-31T00:45:53.892Z,1.70
2022-10-31T00:48:23.352Z,2.72
2022-10-31T00:50:51.475Z,1.65
2022-10-31T00:53:19.618Z,2.33
2022-10-31T00:55:47.836Z,2.75
2022-10-31T00:58:16.225Z,2.00
2022-10-31T01:00:46.813Z,1.98
2022-10-31T01:03:17.649Z,2.08
2022-10-31T01:05:47.232Z,1.98
2022-10-31T01:08:15.439Z,2.45
2022-10-31T01:10:43.579Z,1.85
2022-10-31T01:13:11.863Z,2.28
2022-10-31T01:15:40.037Z,3.70
2022-10-31T01:18:08.204Z,1.98
2022-10-31T01:20:36.434Z,1.70
2022-10-31T01:23:06.048Z,2.08
2022-10-31T01:25:34.226Z,2.58
2022-10-31T01:28:02.628Z,2.42
2022-10-31T01:30:30.927Z,1.92
2022-10-31T01:32:59.756Z,2.05
2022-10-31T01:35:28.000Z,2.70
2022-10-31T01:37:56.592Z,1.98
2022-10-31T01:40:26.114Z,2.58
2022-10-31T01:42:54.606Z,2.20
2022-10-31T01:45:22.996Z,2.03
2022-10-31T01:47:52.070Z,1.75
2022-10-31T01:50:30.881Z,1.92
2022-10-31T01:53:02.061Z,1.33
2022-10-31T01:55:35.369Z,1.63
2022-10-31T01:58:08.661Z,1.80
2022-10-31T02:00:37.419Z,1.50
2022-10-31T02:03:05.584Z,1.80
2022-10-31T02:05:34.711Z,1.92
2022-10-31T02:08:06.885Z,2.25
2022-10-31T02:10:38.428Z,2.15
2022-10-31T02:15:38.577Z,1.33
2022-10-31T02:18:07.944Z,1.88
2022-10-31T02:20:44.657Z,1.67
2022-10-31T02:23:50.431Z,2.22
2022-10-31T02:26:46.063Z,3.08
2022-10-31T02:29:55.459Z,2.65
2022-10-31T02:32:30.243Z,1.80
2022-10-31T02:35:06.414Z,2.72
2022-10-31T02:37:39.808Z,2.10
2022-10-31T02:40:17.152Z,2.80
2022-10-31T02:42:51.726Z,2.42
2022-10-31T02:45:29.647Z,2.05
2022-10-31T02:48:04.218Z,2.10
2022-10-31T02:50:36.091Z,2.42
2022-10-31T02:53:05.156Z,2.72
2022-10-31T02:55:57.187Z,2.30
2022-10-31T02:58:28.583Z,2.08
2022-10-31T03:01:20.622Z,2.95
2022-10-31T03:04:05.149Z,1.95
2022-10-31T03:06:37.600Z,2.17
2022-10-31T03:09:15.097Z,2.00
2022-10-31T03:11:49.003Z,1.67
2022-10-31T03:14:23.945Z,2.55
2022-10-31T03:16:54.332Z,2.33
2022-10-31T03:19:28.707Z,2.22
2022-10-31T03:22:01.093Z,2.20
2022-10-31T03:24:40.647Z,2.40
2022-10-31T03:27:12.513Z,1.70
2022-10-31T03:29:44.293Z,3.38
2022-10-31T03:32:16.853Z,2.10
2022-10-31T03:34:48.175Z,2.40
2022-10-31T03:37:21.133Z,2.53
2022-10-31T03:39:51.537Z,2.60
2022-10-31T03:42:24.286Z,2.53
2022-10-31T03:44:58.624Z,2.65
2022-10-31T03:47:27.689Z,2.45
2022-10-31T03:49:57.964Z,2.45
2022-10-31T03:52:30.419Z,2.30
2022-10-31T03:55:03.266Z,2.25
2022-10-31T03:57:37.503Z,2.80
2022-10-31T04:00:08.638Z,2.50
2022-10-31T04:02:43.042Z,1.95
2022-10-31T04:05:14.652Z,2.35
2022-10-31T04:07:47.435Z,1.73
2022-10-31T04:10:17.829Z,2.63
2022-10-31T04:12:52.160Z,2.28
2022-10-31T04:15:21.775Z,2.70
2022-10-31T04:17:52.624Z,2.38
2022-10-31T04:20:32.409Z,2.78
2022-10-31T04:23:01.780Z,2.13
2022-10-31T04:25:29.889Z,1.77
2022-10-31T04:27:58.311Z,3.85
2022-10-31T04:30:26.765Z,2.25
2022-10-31T04:32:54.867Z,1.70
2022-10-31T04:35:24.470Z,1.98
2022-10-31T04:37:52.647Z,2.17
2022-10-31T04:40:20.837Z,2.33
2022-10-31T04:42:49.071Z,2.20
2022-10-31T04:45:20.247Z,1.67
2022-10-31T04:47:49.819Z,1.70
2022-10-31T04:50:18.406Z,2.15
2022-10-31T04:52:48.572Z,1.60
2022-10-31T04:55:17.109Z,2.92
2022-10-31T04:57:45.987Z,1.85
2022-10-31T05:00:16.684Z,2.13
2022-10-31T05:02:46.301Z,2.63
2022-10-31T05:05:15.120Z,2.33
2022-10-31T05:07:44.335Z,2.22
2022-10-31T05:10:16.344Z,2.28
2022-10-31T05:12:49.151Z,2.53
2022-10-31T05:15:18.173Z,2.45
2022-10-31T05:17:47.072Z,1.80
2022-10-31T05:20:16.654Z,1.75
2022-10-31T05:22:45.694Z,2.08
2022-10-31T05:25:15.778Z,2.17
2022-10-31T05:27:45.704Z,2.40
2022-10-31T05:30:16.382Z,2.15
2022-10-31T05:32:46.096Z,1.80
2022-10-31T05:35:16.109Z,2.03
2022-10-31T05:37:44.638Z,1.52
2022-10-31T05:40:16.402Z,1.73
2022-10-31T05:42:45.787Z,1.55
2022-10-31T05:45:16.041Z,0.98
2022-10-31T05:47:44.554Z,1.40
2022-10-31T05:50:12.787Z,1.45
2022-10-31T05:52:40.959Z,1.92
2022-10-31T05:55:09.692Z,1.58
2022-10-31T05:57:39.173Z,1.88
2022-10-31T06:00:08.599Z,2.22
2022-10-31T06:02:36.652Z,2.13
2022-10-31T06:05:05.133Z,2.00
2022-10-31T06:07:37.332Z,2.17
2022-10-31T06:10:07.512Z,1.75
2022-10-31T06:12:38.539Z,2.20
2022-10-31T06:15:10.345Z,1.95
2022-10-31T06:17:38.786Z,2.38
2022-10-31T06:20:08.664Z,1.80
2022-10-31T06:22:36.807Z,2.35
2022-10-31T06:25:05.470Z,2.75
2022-10-31T06:27:33.751Z,4.63
2022-10-31T06:30:01.858Z,2.70
2022-10-31T06:32:31.397Z,2.40
2022-10-31T06:34:59.496Z,3.25
2022-10-31T06:37:27.635Z,2.05
2022-10-31T06:39:55.808Z,2.65
2022-10-31T06:42:23.926Z,2.65
2022-10-31T06:44:52.073Z,4.57
2022-10-31T06:47:20.240Z,1.98
2022-10-31T06:49:50.112Z,1.90
2022-10-31T06:52:18.239Z,4.25
2022-10-31T06:54:46.604Z,3.40
2022-10-31T06:57:14.718Z,2.65
2022-10-31T06:59:42.858Z,1.65
2022-10-31T07:02:12.226Z,2.30
2022-10-31T07:04:40.353Z,2.13
2022-10-31T07:07:10.012Z,2.70
2022-10-31T07:09:38.212Z,2.88
2022-10-31T07:12:06.601Z,2.85
2022-10-31T07:14:34.778Z,2.03
2022-10-31T07:17:02.859Z,2.30
2022-10-31T07:19:31.131Z,1.75
2022-10-31T07:21:59.492Z,2.10
2022-10-31T07:24:29.083Z,2.00
2022-10-31T07:26:57.318Z,2.90
2022-10-31T07:29:25.512Z,2.45
2022-10-31T07:31:54.184Z,2.65
2022-10-31T07:34:22.374Z,2.67
2022-10-31T07:36:53.048Z,2.08
2022-10-31T07:39:21.154Z,2.97
2022-10-31T07:41:50.612Z,2.40
2022-10-31T07:44:18.740Z,1.90
2022-10-31T07:46:46.815Z,2.97
2022-10-31T07:49:14.942Z,2.50
2022-10-31T07:51:46.441Z,2.10
2022-10-31T07:54:15.285Z,2.58
2022-10-31T07:56:43.576Z,2.47
2022-10-31T07:59:13.081Z,2.35
2022-10-31T08:01:41.093Z,2.38
2022-10-31T08:04:09.412Z,2.50
2022-10-31T08:06:37.540Z,2.70
2022-10-31T08:09:05.773Z,2.28
2022-10-31T08:11:33.871Z,1.65
2022-10-31T08:14:01.917Z,1.98
2022-10-31T08:16:31.540Z,1.70
2022-10-31T08:18:59.704Z,2.80
2022-10-31T08:21:27.886Z,4.05
2022-10-31T08:23:55.997Z,2.30
2022-10-31T08:26:24.254Z,2.22
2022-10-31T08:28:53.575Z,2.03
2022-10-31T08:31:32.160Z,2.63
2022-10-31T08:34:03.589Z,2.58
2022-10-31T08:36:31.866Z,2.33
2022-10-31T08:39:02.064Z,2.13
2022-10-31T08:41:31.048Z,2.45
2022-10-31T08:43:59.165Z,2.50
2022-10-31T08:46:27.269Z,2.28
2022-10-31T08:48:55.460Z,2.67
2022-10-31T08:51:24.913Z,2.25
2022-10-31T08:53:53.118Z,2.53
2022-10-31T08:56:21.356Z,2.47
2022-10-31T08:58:49.577Z,3.38
2022-10-31T09:01:17.828Z,3.25
2022-10-31T09:03:46.129Z,2.63
2022-10-31T09:06:14.329Z,3.28
2022-10-31T09:08:44.091Z,3.50
2022-10-31T09:11:12.273Z,2.92
2022-10-31T09:13:41.555Z,2.50
2022-10-31T09:16:09.969Z,2.80
2022-10-31T09:18:38.212Z,2.75
2022-10-31T09:21:06.665Z,2.78
2022-10-31T09:23:34.760Z,3.35
2022-10-31T09:26:04.652Z,2.33
2022-10-31T09:28:33.821Z,2.70
2022-10-31T09:31:02.110Z,2.72
2022-10-31T09:33:30.384Z,2.42
2022-10-31T09:36:00.497Z,2.42
2022-10-31T09:38:28.632Z,2.45
2022-10-31T09:41:10.063Z,2.63
2022-10-31T09:43:49.596Z,3.05
2022-10-31T09:46:28.803Z,2.75
2022-10-31T09:49:18.793Z,3.03
2022-10-31T09:51:53.335Z,2.58
2022-10-31T09:54:28.795Z,2.90
2022-10-31T09:57:01.308Z,2.35
2022-10-31T09:59:34.998Z,2.38
2022-10-31T10:02:07.208Z,3.00
2022-10-31T10:04:45.647Z,3.80
2022-10-31T10:07:21.516Z,3.55
2022-10-31T10:09:49.772Z,2.35
2022-10-31T10:12:35.084Z,2.10
2022-10-31T10:15:26.481Z,2.55
2022-10-31T10:18:02.944Z,2.30
2022-10-31T10:20:38.355Z,2.95
2022-10-31T10:23:25.808Z,2.63
2022-10-31T10:26:02.877Z,1.95
2022-10-31T10:28:39.460Z,2.90
2022-10-31T10:31:12.632Z,2.95
2022-10-31T10:33:44.828Z,2.38
2022-10-31T10:36:20.542Z,2.00
2022-10-31T10:38:54.679Z,2.42
2022-10-31T10:41:29.320Z,1.90
2022-10-31T10:44:01.653Z,2.85
2022-10-31T10:46:57.025Z,1.90
2022-10-31T10:49:32.336Z,2.67
2022-10-31T10:52:19.457Z,2.60
2022-10-31T10:54:59.279Z,3.40
2022-10-31T10:57:41.823Z,2.53
2022-10-31T11:00:21.448Z,1.92
2022-10-31T11:02:50.442Z,2.72
2022-10-31T11:05:27.008Z,2.45
2022-10-31T11:07:55.339Z,3.10
2022-10-31T11:10:23.673Z,2.05
2022-10-31T11:13:09.125Z,2.97
2022-10-31T11:15:51.594Z,2.47
2022-10-31T11:20:55.591Z,2.47
2022-10-31T11:23:25.688Z,2.38
2022-10-31T11:25:57.101Z,3.00
2022-10-31T11:30:58.161Z,3.17
2022-10-31T11:33:31.899Z,2.95
2022-10-31T11:36:00.973Z,3.78
2022-10-31T11:38:35.793Z,3.20
2022-10-31T11:41:12.659Z,3.38
2022-10-31T11:43:47.586Z,3.55
2022-10-31T11:46:23.517Z,2.90
2022-10-31T11:48:54.847Z,3.22
2022-10-31T11:51:24.300Z,2.90
2022-10-31T11:53:58.222Z,2.78
2022-10-31T11:56:38.789Z,3.55
2022-10-31T11:59:16.992Z,4.20
2022-10-31T12:01:52.733Z,3.28
2022-10-31T12:04:25.574Z,3.58
2022-10-31T12:06:55.994Z,2.95
2022-10-31T12:09:26.443Z,2.90
2022-10-31T12:12:08.972Z,3.58
2022-10-31T12:14:46.294Z,3.13
2022-10-31T12:17:18.166Z,2.60
2022-10-31T12:20:00.534Z,2.95
2022-10-31T12:22:38.666Z,3.13
2022-10-31T12:25:22.546Z,2.65
2022-10-31T12:28:06.188Z,2.95
2022-10-31T12:30:48.907Z,4.20
2022-10-31T12:33:32.069Z,3.20
2022-10-31T12:36:15.426Z,2.95
2022-10-31T12:39:04.598Z,3.38
2022-10-31T12:41:48.282Z,3.05
2022-10-31T12:44:38.143Z,2.85
2022-10-31T12:47:27.929Z,2.95
2022-10-31T12:50:11.160Z,3.50
2022-10-31T12:52:53.932Z,3.75
2022-10-31T12:55:42.920Z,3.58
2022-10-31T12:58:16.792Z,3.13
2022-10-31T13:00:50.826Z,4.38
2022-10-31T13:03:30.100Z,3.47
2022-10-31T13:06:05.676Z,2.70
2022-10-31T13:08:42.751Z,2.95
2022-10-31T13:11:15.346Z,3.03
2022-10-31T13:13:49.513Z,2.40
2022-10-31T13:16:20.858Z,2.83
2022-10-31T13:18:55.553Z,3.35
2022-10-31T13:21:27.919Z,3.63
2022-10-31T13:24:00.152Z,3.00
2022-10-31T13:26:39.117Z,3.55
2022-10-31T13:29:17.361Z,5.07
2022-10-31T13:31:46.051Z,2.70
2022-10-31T13:34:25.345Z,2.78
2022-10-31T13:37:04.163Z,3.83
2022-10-31T13:39:52.096Z,3.00
2022-10-31T13:42:26.193Z,2.88
2022-10-31T13:44:54.430Z,3.05
2022-10-31T13:47:28.337Z,2.67
2022-10-31T13:50:22.155Z,2.63
2022-10-31T13:52:51.743Z,2.40
2022-10-31T13:55:43.659Z,3.20
2022-10-31T13:58:25.988Z,2.58
2022-10-31T14:01:19.641Z,3.10
2022-10-31T14:04:06.164Z,3.22
2022-10-31T14:06:42.184Z,2.95
2022-10-31T14:09:24.600Z,2.35
2022-10-31T14:11:53.291Z,4.13
2022-10-31T14:14:23.062Z,2.67
2022-10-31T14:16:57.583Z,2.47
2022-10-31T14:19:26.999Z,2.47
2022-10-31T14:21:55.236Z,3.28
2022-10-31T14:24:36.914Z,2.72
2022-10-31T14:27:26.898Z,3.97
2022-10-31T14:29:55.308Z,2.97
2022-10-31T14:32:25.445Z,2.78
2022-10-31T14:34:56.329Z,3.20
2022-10-31T14:37:47.433Z,3.10
2022-10-31T14:40:38.068Z,2.95
2022-10-31T14:43:33.520Z,2.28
2022-10-31T14:46:04.801Z,3.10
2022-10-31T14:49:00.537Z,2.95
2022-10-31T14:51:37.511Z,3.72
2022-10-31T14:54:08.617Z,3.20
2022-10-31T14:56:44.315Z,4.22
2022-10-31T14:59:18.714Z,3.53
2022-10-31T15:01:58.313Z,3.22
2022-10-31T15:04:29.207Z,2.95
2022-10-31T15:07:04.588Z,4.00
2022-10-31T15:09:34.491Z,3.47
2022-10-31T15:12:24.970Z,2.65
2022-10-31T15:14:53.761Z,2.53
2022-10-31T15:17:22.647Z,2.45
2022-10-31T15:19:51.111Z,2.35
2022-10-31T15:22:21.586Z,2.55
2022-10-31T15:24:57.122Z,2.28
2022-10-31T15:27:27.380Z,2.55
2022-10-31T15:29:57.045Z,2.60
2022-10-31T15:32:26.910Z,2.38
2022-10-31T15:34:56.876Z,3.78
2022-10-31T15:37:26.532Z,4.70
2022-10-31T15:39:55.301Z,4.07
2022-10-31T15:42:27.095Z,5.85
2022-10-31T15:45:02.095Z,2.50
2022-10-31T15:47:33.057Z,2.42
2022-10-31T15:50:02.927Z,2.17
2022-10-31T15:52:34.854Z,1.90
2022-10-31T15:55:06.348Z,2.22
2022-10-31T15:57:35.881Z,2.40
2022-10-31T16:00:06.197Z,2.25
2022-10-31T16:02:34.518Z,1.90
2022-10-31T16:05:03.814Z,2.10
2022-10-31T16:07:32.540Z,1.85
2022-10-31T16:10:02.056Z,2.35
2022-10-31T16:12:33.958Z,2.22
2022-10-31T16:15:02.899Z,2.47
2022-10-31T16:17:33.628Z,3.00
2022-10-31T16:20:04.237Z,2.50
2022-10-31T16:22:34.993Z,2.35
2022-10-31T16:25:07.584Z,3.17
2022-10-31T16:27:38.930Z,3.03
2022-10-31T16:30:31.103Z,3.50
2022-10-31T16:33:02.829Z,3.55
2022-10-31T16:35:36.004Z,4.00
2022-10-31T16:38:04.589Z,3.95
2022-10-31T16:40:34.016Z,2.90
2022-10-31T16:43:03.498Z,2.30
2022-10-31T16:45:33.357Z,2.85
2022-10-31T16:48:06.476Z,3.53
2022-10-31T16:50:35.321Z,2.60
2022-10-31T16:53:18.717Z,3.00
2022-10-31T16:55:57.330Z,2.70
2022-10-31T16:58:28.193Z,3.33
2022-10-31T17:00:56.524Z,4.07
2022-10-31T17:03:26.406Z,4.50
2022-10-31T17:05:56.199Z,5.00
2022-10-31T17:08:24.980Z,5.18
2022-10-31T17:10:54.495Z,5.10
2022-10-31T17:13:26.793Z,4.13
2022-10-31T17:15:58.006Z,3.75
2022-10-31T17:18:28.122Z,3.67
2022-10-31T17:20:59.191Z,5.03
2022-10-31T17:23:38.142Z,4.78
2022-10-31T17:26:09.019Z,7.03
2022-10-31T17:28:37.456Z,4.55
2022-10-31T17:31:06.639Z,3.88
2022-10-31T17:33:36.708Z,4.25
2022-10-31T17:36:05.663Z,3.83
2022-10-31T17:38:34.100Z,4.78
2022-10-31T17:41:11.099Z,5.43
2022-10-31T17:43:40.080Z,4.55
2022-10-31T17:46:08.476Z,4.80
2022-10-31T17:48:39.129Z,4.78
2022-10-31T17:51:08.509Z,4.40
2022-10-31T17:53:36.752Z,5.22
2022-10-31T17:56:06.285Z,5.10
2022-10-31T17:58:36.241Z,5.10
2022-10-31T18:01:11.174Z,4.47
2022-10-31T18:03:41.156Z,4.70
2022-10-31T18:06:11.054Z,6.30
2022-10-31T18:08:41.110Z,5.88
2022-10-31T18:11:11.023Z,6.22
2022-10-31T18:13:39.843Z,6.75
2022-10-31T18:16:12.134Z,5.93
2022-10-31T18:18:42.356Z,6.05
2022-10-31T18:21:10.573Z,7.03
2022-10-31T18:23:38.734Z,5.35
2022-10-31T18:26:06.925Z,5.35
2022-10-31T18:28:35.198Z,5.32
2022-10-31T18:31:04.048Z,5.53
2022-10-31T18:33:32.191Z,4.85
2022-10-31T18:36:07.247Z,5.50
2022-10-31T18:38:35.558Z,5.22
2022-10-31T18:41:03.560Z,5.75
2022-10-31T18:43:31.724Z,4.93
2022-10-31T18:46:02.618Z,4.82
2022-10-31T18:48:31.489Z,5.30
2022-10-31T18:51:05.887Z,3.78
2022-10-31T18:53:36.357Z,4.10
2022-10-31T18:56:08.832Z,4.50
2022-10-31T18:58:37.180Z,4.90
2022-10-31T19:01:08.618Z,4.43
2022-10-31T19:03:37.606Z,5.68
2022-10-31T19:06:07.074Z,3.47
2022-10-31T19:08:37.560Z,3.08
2022-10-31T19:11:07.159Z,5.30
2022-10-31T19:13:35.770Z,3.63
2022-10-31T19:16:09.746Z,4.78
2022-10-31T19:18:38.684Z,3.00
2022-10-31T19:21:07.929Z,2.85
2022-10-31T19:23:37.756Z,2.55
2022-10-31T19:26:06.698Z,3.08
2022-10-31T19:28:36.697Z,3.40
2022-10-31T19:31:05.605Z,3.40
2022-10-31T19:33:36.128Z,3.13
2022-10-31T19:36:08.377Z,4.20
2022-10-31T19:38:39.116Z,3.53
2022-10-31T19:41:09.365Z,4.77
2022-10-31T19:43:37.570Z,5.50
2022-10-31T19:46:17.415Z,6.25
2022-10-31T19:48:57.419Z,7.00
2022-10-31T19:51:25.601Z,8.40
2022-10-31T19:53:55.667Z,9.13
2022-10-31T19:56:25.370Z,10.63
2022-10-31T19:58:53.581Z,12.30
2022-10-31T20:01:23.435Z,16.08
2022-10-31T20:03:52.795Z,31.60
2022-10-31T20:06:23.908Z,42.38
2022-10-31T20:08:52.882Z,43.90
2022-10-31T20:11:23.164Z,41.42
2022-10-31T20:13:51.540Z,34.75
2022-10-31T20:16:19.872Z,31.63
2022-10-31T20:18:48.137Z,25.80
2022-10-31T20:21:18.816Z,22.08
2022-10-31T20:23:47.586Z,17.33
2022-10-31T20:26:19.401Z,16.30
2022-10-31T20:28:49.250Z,21.60
2022-10-31T20:31:19.702Z,29.45
2022-10-31T20:33:47.844Z,35.17
2022-10-31T20:36:19.619Z,36.50
2022-10-31T20:38:48.703Z,32.13
2022-10-31T20:41:17.656Z,28.80
2022-10-31T20:43:46.081Z,27.10
2022-10-31T20:46:17.947Z,27.08
2022-10-31T20:48:47.077Z,27.25
2022-10-31T20:51:17.227Z,23.52
2022-10-31T20:53:45.344Z,22.23
2022-10-31T20:56:15.263Z,20.67
2022-10-31T20:58:44.603Z,15.25
2022-10-31T21:01:17.016Z,8.15
2022-10-31T21:03:46.216Z,7.40
2022-10-31T21:06:15.022Z,9.32
2022-10-31T21:08:44.569Z,10.20
2022-10-31T21:11:14.568Z,11.02
2022-10-31T21:13:44.357Z,9.40
2022-10-31T21:16:14.006Z,10.02
2022-10-31T21:18:45.392Z,12.20
2022-10-31T21:21:17.785Z,15.05
2022-10-31T21:23:46.011Z,17.15
2022-10-31T21:26:19.230Z,20.88
2022-10-31T21:28:47.757Z,21.92
2022-10-31T21:31:17.963Z,18.15
2022-10-31T21:33:48.019Z,17.63
2022-10-31T21:36:17.400Z,17.50
2022-10-31T21:38:45.520Z,18.67
2022-10-31T21:41:15.828Z,17.02
2022-10-31T21:43:45.617Z,13.13
2022-10-31T21:46:16.138Z,14.27
2022-10-31T21:48:44.745Z,10.32
2022-10-31T21:51:16.563Z,10.68
2022-10-31T21:54:02.371Z,9.88
2022-10-31T21:56:30.676Z,9.52
2022-10-31T21:58:58.828Z,9.55
2022-10-31T22:01:29.190Z,10.27
2022-10-31T22:03:57.528Z,11.13
2022-10-31T22:06:28.468Z,13.13
2022-10-31T22:08:59.942Z,17.52
2022-10-31T22:11:29.233Z,21.15
2022-10-31T22:13:59.821Z,26.55
2022-10-31T22:16:29.838Z,27.42
2022-10-31T22:18:59.681Z,28.65
2022-10-31T22:21:29.987Z,29.13
2022-10-31T22:24:03.358Z,27.35
2022-10-31T22:26:33.338Z,26.95
2022-10-31T22:29:05.090Z,26.35
2022-10-31T22:31:34.309Z,24.50
2022-10-31T22:34:02.804Z,22.15
2022-10-31T22:36:33.309Z,19.33
2022-10-31T22:39:01.629Z,18.88
2022-10-31T22:41:33.491Z,19.27
2022-10-31T22:44:02.995Z,20.13
2022-10-31T22:46:32.884Z,20.23
2022-10-31T22:49:02.503Z,22.48
2022-10-31T22:51:34.376Z,22.05
2022-10-31T22:54:02.626Z,21.77
2022-10-31T22:56:33.359Z,23.00
2022-10-31T22:59:02.773Z,23.00
2022-10-31T23:01:33.112Z,22.95
2022-10-31T23:04:01.942Z,22.52
2022-10-31T23:06:32.684Z,23.23
2022-10-31T23:09:01.546Z,22.67
2022-10-31T23:11:33.436Z,20.70
2022-10-31T23:14:13.911Z,18.30
2022-10-31T23:16:45.122Z,18.40
2022-10-31T23:19:16.224Z,18.35
2022-10-31T23:21:59.841Z,17.27
2022-10-31T23:24:35.660Z,19.58
2022-10-31T23:27:09.816Z,19.05
2022-10-31T23:29:44.493Z,21.38
2022-10-31T23:32:16.444Z,20.77
2022-10-31T23:34:45.241Z,19.75
2022-10-31T23:37:16.211Z,18.92
2022-10-31T23:39:44.696Z,20.13
2022-10-31T23:42:13.872Z,20.70
2022-10-31T23:44:42.112Z,21.67
2022-10-31T23:47:10.342Z,21.73
2022-10-31T23:49:38.602Z,18.98
2022-10-31T23:52:07.278Z,20.42
2022-10-31T23:54:37.121Z,19.60
2022-10-31T23:57:05.716Z,18.83
2022-10-31T23:59:34.106Z,18.33
